Time;durP1;ratioP1;P1;durP2;ratioP2;P2;SDS_P1;SDS_P2;PMS_P1;PMS_P2;Temp;Humidity;BMP_temperature;BMP_pressure;BME280_temperature;BME280_humidity;BME280_pressure;Samples;Min_cycle;Max_cycle;Signal;HPM_P1;HPM_P2
2022/12/13 00:01:14;;;;;;;20.60;10.30;;;-0.60;74.10;;;;;;4222839;28;20041;-85
2022/12/13 00:03:35;;;;;;;19.50;9.65;;;-0.60;74.10;;;;;;4223646;27;20026;-84
2022/12/13 00:05:56;;;;;;;20.83;10.23;;;-0.60;74.00;;;;;;4220386;28;20036;-85
2022/12/13 00:08:17;;;;;;;19.30;9.63;;;-0.60;74.00;;;;;;4219657;27;20023;-85
2022/12/13 00:10:38;;;;;;;21.13;10.57;;;-0.60;74.00;;;;;;4215835;28;20114;-86
2022/12/13 00:12:58;;;;;;;19.95;10.55;;;-0.60;74.00;;;;;;4215871;28;20062;-83
2022/12/13 00:15:18;;;;;;;17.08;9.55;;;-0.60;73.90;;;;;;4212664;28;20438;-85
2022/12/13 00:17:37;;;;;;;21.33;10.75;;;-0.70;73.80;;;;;;4217309;28;20605;-84
2022/12/13 00:19:58;;;;;;;21.30;10.73;;;-0.70;73.80;;;;;;4214667;28;20046;-85
2022/12/13 00:22:19;;;;;;;21.35;10.45;;;-0.60;73.80;;;;;;4212028;28;20039;-84
2022/12/13 00:24:43;;;;;;;23.27;10.35;;;-0.70;73.70;;;;;;4215713;27;20062;-85
2022/12/13 00:27:04;;;;;;;;;;;-0.70;73.70;;;;;;4224431;27;20075;-85
2022/12/13 00:29:26;;;;;;;18.60;9.90;;;-0.70;73.70;;;;;;4221713;28;19919;-86
2022/12/13 00:31:47;;;;;;;17.58;9.55;;;-0.70;73.60;;;;;;4220608;28;20062;-85
2022/12/13 00:34:06;;;;;;;17.63;9.77;;;-0.70;73.60;;;;;;4220326;27;20097;-86
2022/12/13 00:36:26;;;;;;;18.17;9.68;;;-0.70;73.70;;;;;;4215173;28;20039;-85
2022/12/13 00:38:45;;;;;;;22.80;10.48;;;-0.70;73.80;;;;;;4214162;28;20043;-85
2022/12/13 00:41:12;;;;;;;16.88;9.55;;;-0.70;73.80;;;;;;4219003;28;20088;-85
2022/12/13 00:43:31;;;;;;;20.42;11.63;;;-0.70;73.80;;;;;;4215119;28;20058;-85
2022/12/13 00:45:50;;;;;;;20.30;10.77;;;-0.70;73.80;;;;;;4214712;28;20038;-85
2022/12/13 00:48:09;;;;;;;21.27;10.98;;;-0.70;73.90;;;;;;4213268;28;20077;-85
2022/12/13 00:50:28;;;;;;;24.45;10.98;;;-0.70;73.80;;;;;;4216823;28;20115;-85
2022/12/13 00:52:48;;;;;;;22.77;11.88;;;-0.70;73.80;;;;;;4213783;28;20053;-85
2022/12/13 00:55:07;;;;;;;20.60;10.65;;;-0.70;73.70;;;;;;4208885;28;20039;-85
2022/12/13 00:57:27;;;;;;;24.10;11.35;;;-0.70;73.70;;;;;;4213280;28;20030;-85
2022/12/13 00:59:46;;;;;;;19.13;10.98;;;-0.70;73.60;;;;;;4211347;28;20043;-85
2022/12/13 01:02:05;;;;;;;26.60;11.45;;;-0.70;73.60;;;;;;4213985;28;20035;-85
2022/12/13 01:04:26;;;;;;;23.25;10.35;;;-0.80;73.60;;;;;;4209736;28;20045;-85
2022/12/13 01:06:48;;;;;;;19.02;9.77;;;-0.80;73.60;;;;;;4211808;27;20069;-86
2022/12/13 01:09:21;;;;;;;23.58;10.90;;;-0.70;73.70;;;;;;4198987;28;20390;-85
2022/12/13 01:11:21;;;;;;;;;;;-0.80;73.70;;;;;;4211533;28;20699;-85
2022/12/13 01:13:22;;;;;;;21.23;10.40;;;-0.70;73.90;;;;;;4209773;28;19950;-85
2022/12/13 01:15:23;;;;;;;25.25;10.80;;;-0.60;73.80;;;;;;4207560;28;20032;-85
2022/12/13 01:17:23;;;;;;;21.35;11.48;;;-0.70;73.70;;;;;;4215658;28;20055;-85
2022/12/13 01:19:26;;;;;;;27.90;12.50;;;-0.80;73.70;;;;;;4211902;28;20028;-85
2022/12/13 01:21:26;;;;;;;28.75;12.20;;;-0.80;73.70;;;;;;4208846;28;20032;-85
2022/12/13 01:23:28;;;;;;;24.05;10.55;;;-0.70;73.70;;;;;;4212493;28;20059;-85
2022/12/13 01:25:28;;;;;;;23.77;11.20;;;-0.70;73.80;;;;;;4209222;28;20032;-85
2022/12/13 01:27:29;;;;;;;23.70;11.80;;;-0.80;73.80;;;;;;4210508;28;20072;-85
2022/12/13 01:29:30;;;;;;;23.88;11.85;;;-0.70;73.90;;;;;;4211628;28;20808;-85
2022/12/13 01:31:32;;;;;;;19.25;10.20;;;-0.80;73.80;;;;;;4204083;28;20031;-86
2022/12/13 01:33:33;;;;;;;21.88;11.73;;;-0.70;73.90;;;;;;4215202;28;20852;-85
2022/12/13 01:35:34;;;;;;;28.42;12.63;;;-0.70;73.90;;;;;;4210970;28;20024;-83
2022/12/13 01:37:35;;;;;;;22.55;11.43;;;-0.70;73.90;;;;;;4193525;28;20035;-84
2022/12/13 01:39:36;;;;;;;24.83;11.40;;;-0.70;73.90;;;;;;4210955;28;20105;-84
2022/12/13 01:41:37;;;;;;;26.10;12.05;;;-0.80;73.80;;;;;;4211572;28;20111;-84
2022/12/13 01:43:41;;;;;;;24.48;11.98;;;-0.80;73.80;;;;;;4213429;28;20122;-84
2022/12/13 01:45:42;;;;;;;23.63;11.50;;;-0.70;73.80;;;;;;4212811;28;20241;-84
2022/12/13 01:47:47;;;;;;;22.02;11.60;;;-0.80;73.70;;;;;;4211295;28;20050;-84
2022/12/13 01:49:48;;;;;;;22.02;10.85;;;-0.70;73.60;;;;;;4212687;28;21117;-84
2022/12/13 01:51:53;;;;;;;22.02;11.15;;;-0.70;73.60;;;;;;4208892;28;20032;-84
2022/12/13 01:53:57;;;;;;;20.20;10.20;;;-0.70;73.60;;;;;;4218161;28;20035;-84
2022/12/13 01:56:06;;;;;;;22.40;10.65;;;-0.80;73.50;;;;;;4210555;28;20035;-83
2022/12/13 01:58:08;;;;;;;17.38;8.68;;;-0.70;73.70;;;;;;4218641;28;20024;-83
2022/12/13 02:00:09;;;;;;;18.10;9.35;;;-0.70;73.60;;;;;;4237181;28;20056;-83
2022/12/13 02:02:13;;;;;;;17.83;10.07;;;-0.70;73.60;;;;;;4216193;28;22063;-83
2022/12/13 02:04:22;;;;;;;20.92;10.73;;;-0.70;73.70;;;;;;4212777;28;20066;-83
2022/12/13 02:06:32;;;;;;;18.95;10.30;;;-0.70;73.70;;;;;;4200042;28;20036;-82
2022/12/13 02:08:33;;;;;;;18.73;9.95;;;-0.70;73.60;;;;;;4213355;28;20439;-85
2022/12/13 02:10:34;;;;;;;18.63;9.82;;;-0.70;73.60;;;;;;4213876;28;20582;-84
2022/12/13 02:12:37;;;;;;;20.20;9.75;;;-0.70;73.70;;;;;;4216449;28;20070;-85
2022/12/13 02:14:39;;;;;;;20.58;10.05;;;-0.70;73.80;;;;;;4216202;28;20059;-86
2022/12/13 02:17:10;;;;;;;18.92;9.40;;;-0.70;73.80;;;;;;4217907;28;20538;-83
2022/12/13 02:19:49;;;;;;;18.45;9.50;;;-0.70;73.80;;;;;;4228431;28;20016;-83
2022/12/13 02:22:14;;;;;;;21.35;10.25;;;-0.80;73.80;;;;;;4217993;28;20032;-83
2022/12/13 02:24:37;;;;;;;22.40;10.30;;;-0.70;73.90;;;;;;4220960;27;20042;-83
2022/12/13 02:26:49;;;;;;;20.15;9.73;;;-0.70;73.90;;;;;;4218389;28;20503;-83
2022/12/13 02:28:58;;;;;;;21.92;10.30;;;-0.70;73.80;;;;;;4214171;28;20027;-83
2022/12/13 02:31:28;;;;;;;21.35;10.32;;;-0.70;73.80;;;;;;4216698;27;20438;-83
2022/12/13 02:33:51;;;;;;;20.63;10.20;;;-0.80;73.80;;;;;;4222350;27;20654;-84
2022/12/13 02:36:06;;;;;;;21.25;10.27;;;-0.80;73.80;;;;;;4222317;28;20028;-85
2022/12/13 02:38:35;;;;;;;21.15;10.80;;;-0.70;73.90;;;;;;4215218;27;20535;-84
2022/12/13 02:41:05;;;;;;;25.20;11.50;;;-0.80;73.80;;;;;;4208335;28;20107;-85
2022/12/13 02:43:15;;;;;;;25.08;11.70;;;-0.70;73.70;;;;;;4202804;28;20107;-84
2022/12/13 02:45:23;;;;;;;23.10;11.00;;;-0.70;73.60;;;;;;4219826;28;20621;-85
2022/12/13 02:47:26;;;;;;;27.15;11.90;;;-0.70;73.60;;;;;;4217010;28;20024;-84
2022/12/13 02:49:31;;;;;;;25.75;12.18;;;-0.80;73.50;;;;;;4217211;28;20031;-85
2022/12/13 02:51:33;;;;;;;26.48;12.48;;;-0.80;73.60;;;;;;4214755;28;20943;-84
2022/12/13 02:53:37;;;;;;;26.20;12.43;;;-0.80;73.60;;;;;;4226253;27;20028;-84
2022/12/13 02:55:39;;;;;;;28.70;13.00;;;-0.80;73.50;;;;;;4218253;28;20063;-83
2022/12/13 02:57:42;;;;;;;27.95;12.88;;;-0.80;73.50;;;;;;4200485;28;20052;-84
2022/12/13 02:59:42;;;;;;;29.95;13.18;;;-0.80;73.50;;;;;;4219270;28;20030;-83
2022/12/13 03:02:15;;;;;;;30.10;13.40;;;-0.80;73.50;;;;;;4226116;27;20024;-85
2022/12/13 03:04:31;;;;;;;27.27;11.82;;;-0.80;73.50;;;;;;4216828;28;20026;-84
2022/12/13 03:06:52;;;;;;;24.60;11.65;;;-0.80;73.50;;;;;;4216077;27;20426;-83
2022/12/13 03:09:09;;;;;;;27.05;12.20;;;-0.70;73.60;;;;;;4212520;28;20050;-83
2022/12/13 03:11:18;;;;;;;21.33;10.30;;;-0.80;73.50;;;;;;4210137;27;20031;-83
2022/12/13 03:13:37;;;;;;;26.08;11.85;;;-0.90;73.50;;;;;;4211951;28;20498;-83
2022/12/13 03:15:46;;;;;;;22.90;11.40;;;-0.80;73.70;;;;;;4210968;28;20027;-82
2022/12/13 03:17:55;;;;;;;26.73;11.80;;;-0.80;73.80;;;;;;4218572;28;20028;-84
2022/12/13 03:19:56;;;;;;;29.10;13.20;;;-0.90;73.70;;;;;;4211690;28;20035;-84
2022/12/13 03:21:57;;;;;;;32.22;14.02;;;-0.80;73.80;;;;;;4196982;28;20090;-84
2022/12/13 03:23:58;;;;;;;30.05;13.25;;;-0.80;73.80;;;;;;4218593;27;20085;-83
2022/12/13 03:26:02;;;;;;;29.25;13.02;;;-0.80;73.80;;;;;;4214659;28;20084;-83
2022/12/13 03:28:03;;;;;;;30.25;13.07;;;-0.80;73.80;;;;;;4211669;27;20031;-83
2022/12/13 03:30:04;;;;;;;33.30;13.30;;;-0.80;73.80;;;;;;4215678;28;20530;-84
2022/12/13 03:32:04;;;;;;;35.00;14.02;;;-0.80;73.80;;;;;;4198427;28;20500;-83
2022/12/13 03:34:05;;;;;;;31.27;13.60;;;-0.80;73.90;;;;;;4222181;27;20042;-83
2022/12/13 03:36:08;;;;;;;32.42;13.70;;;-0.80;73.90;;;;;;4214437;28;20039;-84
2022/12/13 03:38:09;;;;;;;30.23;14.15;;;-0.80;73.90;;;;;;4213140;28;20157;-83
2022/12/13 03:40:10;;;;;;;35.88;14.43;;;-0.80;73.90;;;;;;4217238;28;20023;-83
2022/12/13 03:42:11;;;;;;;30.40;13.52;;;-0.80;73.90;;;;;;4201422;28;20134;-84
2022/12/13 03:44:12;;;;;;;36.42;15.65;;;-0.80;73.90;;;;;;4213580;28;20054;-83
2022/12/13 03:46:13;;;;;;;36.90;15.65;;;-0.80;73.80;;;;;;4216064;28;20015;-83
2022/12/13 03:48:14;;;;;;;29.70;13.35;;;-0.80;73.70;;;;;;4219991;27;20380;-83
2022/12/13 03:50:15;;;;;;;37.25;16.00;;;-0.80;73.70;;;;;;4214859;28;20043;-84
2022/12/13 03:52:16;;;;;;;33.15;15.35;;;-0.80;73.60;;;;;;4209402;27;20024;-83
2022/12/13 03:54:16;;;;;;;33.45;15.05;;;-0.80;73.50;;;;;;4214257;27;20034;-83
2022/12/13 03:56:17;;;;;;;35.00;14.88;;;-0.80;73.30;;;;;;4212106;28;20036;-83
2022/12/13 03:58:18;;;;;;;31.15;13.55;;;-0.90;73.20;;;;;;4213926;28;20034;-83
2022/12/13 04:00:19;;;;;;;28.33;12.93;;;-0.90;73.30;;;;;;4217464;28;20045;-83
2022/12/13 04:02:19;;;;;;;29.23;13.43;;;-0.90;73.40;;;;;;4216393;27;20035;-83
2022/12/13 04:04:20;;;;;;;36.10;14.52;;;-0.80;73.60;;;;;;4213933;28;20138;-83
2022/12/13 04:06:21;;;;;;;30.70;14.27;;;-0.80;74.40;;;;;;4200118;28;20024;-83
2022/12/13 04:08:42;;;;;;;35.92;15.10;;;-0.80;73.80;;;;;;4212994;28;20031;-83
2022/12/13 04:13:31;;;;;;;34.03;15.38;;;-0.90;73.70;;;;;;4219619;28;20579;-82
2022/12/13 04:13:43;;;;;;;40.90;16.30;;;-0.80;73.70;;;;;;4213707;27;20036;-83
2022/12/13 04:16:04;;;;;;;38.92;17.00;;;-0.70;73.70;;;;;;4218336;28;20047;-83
2022/12/13 04:18:24;;;;;;;42.50;16.50;;;-0.80;73.60;;;;;;4208867;28;20047;-83
2022/12/13 04:20:46;;;;;;;35.05;15.45;;;-0.80;73.60;;;;;;4214105;28;20059;-82
2022/12/13 04:23:07;;;;;;;42.55;16.83;;;-0.80;73.70;;;;;;4214457;27;20034;-83
2022/12/13 04:25:28;;;;;;;37.20;15.52;;;-0.80;73.80;;;;;;4217218;28;20024;-84
2022/12/13 04:27:48;;;;;;;39.22;16.92;;;-0.80;73.80;;;;;;4217787;28;20503;-84
2022/12/13 04:30:10;;;;;;;38.45;16.35;;;-0.80;73.80;;;;;;4216459;28;20035;-87
2022/12/13 04:32:31;;;;;;;40.90;17.45;;;-0.80;73.80;;;;;;4215362;28;20028;-84
2022/12/13 04:34:52;;;;;;;39.05;15.32;;;-0.80;73.80;;;;;;4211907;28;20029;-84
2022/12/13 04:37:12;;;;;;;40.35;16.83;;;-0.80;73.80;;;;;;4215193;27;20043;-84
2022/12/13 04:39:33;;;;;;;35.45;15.10;;;-0.80;73.90;;;;;;4220062;28;20039;-83
2022/12/13 04:41:54;;;;;;;39.00;15.80;;;-0.80;73.90;;;;;;4228451;28;20043;-84
2022/12/13 04:44:15;;;;;;;34.33;15.88;;;-0.80;73.90;;;;;;4217192;28;20051;-83
2022/12/13 04:46:36;;;;;;;37.90;17.80;;;-0.70;74.00;;;;;;4212199;28;20032;-84
2022/12/13 04:48:56;;;;;;;43.80;19.70;;;-0.70;74.00;;;;;;4210875;28;20035;-85
2022/12/13 04:51:17;;;;;;;40.28;16.58;;;-0.80;73.60;;;;;;4216432;28;20035;-86
2022/12/13 04:53:37;;;;;;;39.60;16.75;;;-0.80;73.30;;;;;;4217486;27;20027;-88
2022/12/13 04:56:01;;;;;;;34.85;15.95;;;-0.70;73.20;;;;;;4214524;28;20032;-85
2022/12/13 04:58:21;;;;;;;30.50;13.68;;;-0.80;73.30;;;;;;4212183;28;20089;-85
2022/12/13 05:00:42;;;;;;;33.80;15.48;;;-0.80;73.40;;;;;;4217646;28;20027;-85
2022/12/13 05:03:03;;;;;;;38.17;17.23;;;-0.80;73.60;;;;;;4215370;28;20024;-85
2022/12/13 05:05:23;;;;;;;38.08;16.90;;;-0.90;73.60;;;;;;4211640;28;20104;-83
2022/12/13 05:07:44;;;;;;;36.00;16.13;;;-0.80;73.70;;;;;;4219035;28;20078;-83
2022/12/13 05:10:05;;;;;;;38.67;16.50;;;-0.90;73.50;;;;;;4222490;28;20043;-83
2022/12/13 05:12:26;;;;;;;40.60;16.17;;;-0.90;73.60;;;;;;4218992;28;20053;-84
2022/12/13 05:14:46;;;;;;;38.17;15.15;;;-0.90;73.70;;;;;;4217505;28;20044;-83
2022/12/13 05:17:07;;;;;;;42.53;15.35;;;-0.90;73.80;;;;;;4215022;28;20111;-83
2022/12/13 05:19:28;;;;;;;35.05;14.25;;;-0.90;73.90;;;;;;4216398;28;20653;-83
2022/12/13 05:21:48;;;;;;;35.53;14.88;;;-0.90;74.10;;;;;;4215114;28;20396;-84
2022/12/13 05:24:09;;;;;;;35.65;15.05;;;-0.80;74.20;;;;;;4211073;28;20024;-84
2022/12/13 05:26:30;;;;;;;35.72;15.32;;;-0.80;75.00;;;;;;4219873;28;20101;-84
2022/12/13 05:28:51;;;;;;;40.22;17.13;;;-0.80;74.30;;;;;;4218807;28;20062;-84
2022/12/13 05:31:12;;;;;;;42.15;17.65;;;-0.80;74.30;;;;;;4211870;28;20036;-84
2022/12/13 05:33:33;;;;;;;40.30;17.05;;;-0.80;74.30;;;;;;4210611;28;20032;-83
2022/12/13 05:35:53;;;;;;;38.20;16.98;;;-0.80;74.20;;;;;;4220792;28;20746;-84
2022/12/13 05:38:14;;;;;;;36.05;16.50;;;-0.80;74.20;;;;;;4206482;28;20027;-84
2022/12/13 05:40:35;;;;;;;36.70;15.68;;;-0.80;74.30;;;;;;4211085;28;20089;-84
2022/12/13 05:42:56;;;;;;;39.38;17.05;;;-0.80;74.30;;;;;;4215434;28;20031;-84
2022/12/13 05:45:17;;;;;;;41.35;16.83;;;-0.80;74.30;;;;;;4211573;28;20392;-85
2022/12/13 05:47:38;;;;;;;35.28;15.73;;;-0.70;74.40;;;;;;4215851;28;20035;-84
2022/12/13 05:49:58;;;;;;;40.28;17.17;;;-0.70;74.40;;;;;;4214344;28;20074;-85
2022/12/13 05:52:21;;;;;;;45.05;18.02;;;-0.70;74.40;;;;;;4214354;28;20032;-83
2022/12/13 05:54:41;;;;;;;39.60;16.85;;;-0.70;74.40;;;;;;4221029;27;20032;-84
2022/12/13 05:57:02;;;;;;;46.38;18.80;;;-0.70;74.40;;;;;;4223800;27;20032;-83
2022/12/13 05:59:22;;;;;;;46.25;19.35;;;-0.70;74.30;;;;;;4218311;28;20481;-83
2022/12/13 06:01:42;;;;;;;41.97;18.77;;;-0.70;74.20;;;;;;4225516;28;20042;-83
2022/12/13 06:04:01;;;;;;;45.72;17.73;;;-0.70;74.00;;;;;;4217132;28;21071;-84
2022/12/13 06:06:20;;;;;;;44.08;17.80;;;-0.70;74.00;;;;;;4222185;27;20076;-84
2022/12/13 06:08:40;;;;;;;40.58;17.38;;;-0.70;73.90;;;;;;4223014;27;20106;-84
2022/12/13 06:11:01;;;;;;;41.33;16.73;;;-0.70;74.00;;;;;;4216530;27;20070;-84
2022/12/13 06:13:20;;;;;;;39.53;17.23;;;-0.80;74.00;;;;;;4227645;28;20030;-83
2022/12/13 06:15:39;;;;;;;37.22;15.48;;;-0.70;74.10;;;;;;4217385;28;20073;-84
2022/12/13 06:17:59;;;;;;;39.97;16.13;;;-0.70;74.10;;;;;;4221187;28;20128;-84
2022/12/13 06:20:18;;;;;;;41.38;15.88;;;-0.80;74.20;;;;;;4218573;28;20106;-85
2022/12/13 06:22:37;;;;;;;39.50;15.77;;;-0.70;74.30;;;;;;4218928;28;20578;-84
2022/12/13 06:24:56;;;;;;;44.88;19.05;;;-0.80;74.30;;;;;;4221062;27;20043;-84
2022/12/13 06:27:15;;;;;;;44.30;19.83;;;-0.70;74.40;;;;;;4217179;28;20431;-84
2022/12/13 06:29:34;;;;;;;48.55;18.92;;;-0.70;74.40;;;;;;4216600;28;20058;-84
2022/12/13 06:31:59;;;;;;;56.20;20.73;;;-0.70;74.20;;;;;;4217778;28;20082;-83
2022/12/13 06:34:19;;;;;;;49.05;20.58;;;-0.70;74.10;;;;;;4217586;28;20047;-83
2022/12/13 06:36:38;;;;;;;53.35;21.67;;;-0.80;73.90;;;;;;4218955;28;20084;-84
2022/12/13 06:39:02;;;;;;;56.13;22.27;;;-0.80;73.80;;;;;;4218099;28;20038;-86
2022/12/13 06:41:21;;;;;;;50.92;20.13;;;-0.80;73.60;;;;;;4217712;28;20058;-83
2022/12/13 06:43:42;;;;;;;42.63;18.27;;;-0.80;73.70;;;;;;4219772;28;20062;-86
2022/12/13 06:46:05;;;;;;;41.00;17.75;;;-0.80;73.80;;;;;;4218060;28;20568;-86
2022/12/13 06:48:25;;;;;;;47.03;18.33;;;-0.80;73.90;;;;;;4218681;28;20503;-86
2022/12/13 06:50:44;;;;;;;48.13;18.92;;;-0.90;74.00;;;;;;4229283;28;20081;-86
2022/12/13 06:53:03;;;;;;;46.17;19.40;;;-0.90;74.20;;;;;;4215928;28;20043;-86
2022/12/13 06:55:22;;;;;;;47.60;18.05;;;-0.90;74.30;;;;;;4217605;28;20062;-86
2022/12/13 06:57:42;;;;;;;44.40;18.55;;;-0.80;74.40;;;;;;4217271;28;20116;-85
2022/12/13 07:00:03;;;;;;;41.28;17.45;;;-0.80;74.40;;;;;;4217295;28;20556;-86
2022/12/13 07:02:22;;;;;;;42.13;18.38;;;-0.80;74.50;;;;;;4218567;28;20054;-86
2022/12/13 07:04:42;;;;;;;43.88;18.25;;;-0.80;74.50;;;;;;4221194;28;20127;-86
2022/12/13 07:07:01;;;;;;;48.22;20.05;;;-0.80;74.60;;;;;;4225444;28;20035;-85
2022/12/13 07:09:21;;;;;;;56.50;20.63;;;-0.80;74.60;;;;;;4220575;28;20035;-83
2022/12/13 07:11:40;;;;;;;49.00;18.80;;;-0.80;74.60;;;;;;4219976;28;20224;-84
2022/12/13 07:14:00;;;;;;;55.58;20.83;;;-0.70;74.60;;;;;;4216814;28;20046;-84
2022/12/13 07:16:22;;;;;;;45.47;20.25;;;-0.80;74.60;;;;;;4217652;27;20063;-84
2022/12/13 07:18:41;;;;;;;59.00;21.70;;;-0.70;74.60;;;;;;4221368;28;20629;-84
2022/12/13 07:21:07;;;;;;;59.10;21.77;;;-0.70;74.60;;;;;;4214989;28;20105;-83
2022/12/13 07:23:26;;;;;;;57.65;21.15;;;-0.70;74.60;;;;;;4218554;27;20093;-84
2022/12/13 07:25:53;;;;;;;57.92;22.15;;;-0.70;74.60;;;;;;4221871;28;20030;-84
2022/12/13 07:28:12;;;;;;;57.10;23.17;;;-0.70;74.60;;;;;;4217623;28;20122;-84
2022/12/13 07:30:38;;;;;;;61.55;21.70;;;-0.70;74.50;;;;;;4218214;27;20307;-84
2022/12/13 07:32:59;;;;;;;53.72;20.80;;;-0.70;74.50;;;;;;4219503;28;20047;-84
2022/12/13 07:35:18;;;;;;;62.28;23.58;;;-0.70;74.40;;;;;;4217990;28;20089;-84
2022/12/13 07:37:37;;;;;;;57.30;22.83;;;-0.70;74.50;;;;;;4216426;27;20570;-84
2022/12/13 07:39:57;;;;;;;56.95;21.75;;;-0.70;74.50;;;;;;4216094;28;20752;-84
2022/12/13 07:42:16;;;;;;;61.05;23.38;;;-0.70;74.50;;;;;;4216310;28;20590;-84
2022/12/13 07:44:35;;;;;;;62.75;23.85;;;-0.70;74.40;;;;;;4222262;28;20031;-83
2022/12/13 07:46:54;;;;;;;57.58;22.67;;;-0.70;75.10;;;;;;4217825;28;20041;-84
2022/12/13 07:49:13;;;;;;;59.67;24.17;;;-0.70;74.40;;;;;;4220386;28;20093;-84
2022/12/13 07:51:34;;;;;;;62.58;23.42;;;-0.60;74.40;;;;;;4220526;28;20035;-85
2022/12/13 07:53:53;;;;;;;74.63;25.02;;;-0.60;74.40;;;;;;4223478;27;20030;-84
2022/12/13 07:56:12;;;;;;;61.38;24.27;;;-0.60;74.30;;;;;;4216734;27;20549;-84
2022/12/13 07:58:34;;;;;;;58.88;23.90;;;-0.60;74.30;;;;;;4214520;28;20070;-84
2022/12/13 08:01:01;;;;;;;60.30;23.67;;;-0.60;74.30;;;;;;4214160;27;20079;-85
2022/12/13 08:03:20;;;;;;;57.20;23.08;;;-0.60;74.40;;;;;;4216010;28;20031;-84
2022/12/13 08:05:39;;;;;;;54.70;21.80;;;-0.60;74.30;;;;;;4217058;28;20066;-83
2022/12/13 08:08:03;;;;;;;64.82;24.73;;;-0.60;74.30;;;;;;4217236;28;20186;-84
2022/12/13 08:10:22;;;;;;;68.85;26.48;;;-0.60;74.30;;;;;;4221524;28;20038;-84
2022/12/13 08:12:41;;;;;;;65.90;24.60;;;-0.60;74.30;;;;;;4213933;28;20043;-84
2022/12/13 08:15:00;;;;;;;67.88;24.45;;;-0.60;74.10;;;;;;4218266;28;20108;-84
2022/12/13 08:17:20;;;;;;;57.47;24.65;;;-0.60;74.10;;;;;;4215360;28;20085;-84
2022/12/13 08:19:40;;;;;;;59.72;24.98;;;-0.60;74.00;;;;;;4214807;28;20035;-83
2022/12/13 08:22:00;;;;;;;67.03;25.73;;;-0.60;74.00;;;;;;4214809;28;20092;-84
2022/12/13 08:24:19;;;;;;;63.60;24.67;;;-0.60;73.90;;;;;;4217888;27;20031;-84
2022/12/13 08:26:38;;;;;;;64.35;25.30;;;-0.60;73.80;;;;;;4234157;28;20031;-84
2022/12/13 08:28:58;;;;;;;67.63;27.15;;;-0.60;73.70;;;;;;4218078;28;20062;-83
2022/12/13 08:31:17;;;;;;;62.13;24.23;;;-0.60;73.70;;;;;;4216162;28;20039;-84
2022/12/13 08:33:39;;;;;;;77.97;31.98;;;-0.60;73.60;;;;;;4220598;28;20036;-84
2022/12/13 08:36:16;;;;;;;67.90;28.20;;;-0.60;73.50;;;;;;4213780;28;20043;-84
2022/12/13 08:38:36;;;;;;;70.03;28.90;;;-0.60;73.40;;;;;;4214257;28;20031;-84
2022/12/13 08:40:58;;;;;;;72.05;26.48;;;-0.60;73.40;;;;;;4213185;28;20443;-84
2022/12/13 08:43:17;;;;;;;68.97;26.67;;;-0.60;73.30;;;;;;4216674;28;20027;-84
2022/12/13 08:45:36;;;;;;;64.07;25.17;;;-0.60;73.20;;;;;;4218074;28;20522;-84
2022/12/13 08:47:58;;;;;;;62.85;26.13;;;-0.60;73.20;;;;;;4215031;28;20043;-84
2022/12/13 08:50:17;;;;;;;65.10;26.48;;;-0.60;73.10;;;;;;4221877;27;20058;-84
2022/12/13 08:52:37;;;;;;;65.57;26.15;;;-0.70;73.00;;;;;;4219229;28;20038;-84
2022/12/13 08:54:56;;;;;;;66.95;26.65;;;-0.70;72.80;;;;;;4218419;27;20058;-84
2022/12/13 08:57:16;;;;;;;59.00;23.50;;;-0.70;72.80;;;;;;4217606;28;20136;-84
2022/12/13 08:59:35;;;;;;;57.70;23.40;;;-0.70;72.70;;;;;;4217131;28;20053;-84
2022/12/13 09:01:54;;;;;;;61.63;25.65;;;-0.70;72.80;;;;;;4217728;28;20042;-84
2022/12/13 09:04:13;;;;;;;61.45;24.80;;;-0.70;72.90;;;;;;4222506;27;20034;-83
2022/12/13 09:06:32;;;;;;;59.25;24.98;;;-0.70;72.90;;;;;;4215887;28;20031;-84
2022/12/13 09:08:53;;;;;;;65.32;25.73;;;-0.70;72.90;;;;;;4216015;28;20039;-87
2022/12/13 09:11:12;;;;;;;60.13;25.45;;;-0.70;72.80;;;;;;4218736;28;20026;-86
2022/12/13 09:13:33;;;;;;;63.25;25.40;;;-0.70;72.80;;;;;;4217032;28;20070;-84
2022/12/13 09:15:53;;;;;;;59.10;22.73;;;-0.70;72.80;;;;;;4218618;28;20050;-83
2022/12/13 09:18:12;;;;;;;57.70;24.38;;;-0.70;72.80;;;;;;4213167;28;20046;-84
2022/12/13 09:20:34;;;;;;;58.83;24.25;;;-0.70;72.90;;;;;;4218100;28;20034;-86
2022/12/13 09:22:53;;;;;;;59.63;24.55;;;-0.70;72.90;;;;;;4210644;28;20047;-84
2022/12/13 09:25:12;;;;;;;55.95;23.80;;;-0.70;72.90;;;;;;4218126;28;20082;-84
2022/12/13 09:27:31;;;;;;;60.10;23.25;;;-0.70;73.60;;;;;;4214733;28;20127;-85
2022/12/13 09:29:50;;;;;;;62.55;24.30;;;-0.60;73.00;;;;;;4224557;28;20031;-83
2022/12/13 09:32:09;;;;;;;52.65;22.98;;;-0.60;73.00;;;;;;4219787;28;20045;-86
2022/12/13 09:34:28;;;;;;;58.63;24.05;;;-0.60;73.00;;;;;;4220566;27;20066;-86
2022/12/13 09:36:48;;;;;;;65.10;24.90;;;-0.60;73.00;;;;;;4224896;27;20042;-86
2022/12/13 09:39:07;;;;;;;57.35;23.40;;;-0.60;72.90;;;;;;4219071;28;20047;-86
2022/12/13 09:41:36;;;;;;;62.17;24.55;;;-0.50;73.00;;;;;;4215575;28;20046;-86
2022/12/13 09:44:03;;;;;;;63.50;24.38;;;-0.50;72.90;;;;;;4217672;27;20137;-85
2022/12/13 09:46:26;;;;;;;56.15;23.70;;;-0.50;72.80;;;;;;4224335;28;20054;-86
2022/12/13 09:48:45;;;;;;;64.13;24.75;;;-0.50;72.80;;;;;;4219999;27;20502;-86
2022/12/13 09:51:08;;;;;;;58.10;23.63;;;-0.50;72.70;;;;;;4220710;28;20035;-86
2022/12/13 09:53:28;;;;;;;58.83;23.75;;;-0.40;72.80;;;;;;4225573;27;20106;-86
2022/12/13 09:55:49;;;;;;;55.80;23.20;;;-0.40;72.80;;;;;;4224955;27;20035;-86
2022/12/13 09:58:27;;;;;;;56.00;22.98;;;-0.40;72.80;;;;;;4221005;28;20120;-85
2022/12/13 10:00:48;;;;;;;56.95;23.48;;;-0.40;72.70;;;;;;4225154;27;20038;-86
2022/12/13 10:03:13;;;;;;;54.45;23.15;;;-0.40;72.60;;;;;;4222101;27;20042;-86
2022/12/13 10:05:35;;;;;;;53.58;21.98;;;-0.40;72.50;;;;;;4228184;28;20055;-86
2022/12/13 10:07:58;;;;;;;59.00;24.15;;;-0.30;72.50;;;;;;4227762;28;20039;-86
2022/12/13 10:10:19;;;;;;;56.85;23.00;;;-0.30;72.30;;;;;;4221666;28;20101;-86
2022/12/13 10:12:39;;;;;;;54.08;21.60;;;-0.30;72.20;;;;;;4218595;28;20039;-86
2022/12/13 10:15:01;;;;;;;58.25;22.83;;;-0.30;72.10;;;;;;4217490;27;20054;-86
2022/12/13 10:17:24;;;;;;;49.05;21.27;;;-0.30;72.10;;;;;;4218885;28;20034;-86
2022/12/13 10:19:45;;;;;;;50.78;21.20;;;-0.30;72.10;;;;;;4222685;28;20046;-86
2022/12/13 10:22:12;;;;;;;52.05;21.35;;;-0.20;72.20;;;;;;4220334;28;20089;-86
2022/12/13 10:24:54;;;;;;;50.58;21.13;;;-0.20;72.20;;;;;;4219571;27;20131;-86
2022/12/13 10:27:17;;;;;;;55.65;20.60;;;-0.20;72.10;;;;;;4217229;28;20464;-86
2022/12/13 10:29:55;;;;;;;51.90;21.80;;;-0.20;72.10;;;;;;4220135;27;20348;-86
2022/12/13 10:32:18;;;;;;;49.65;21.23;;;-0.20;72.00;;;;;;4218668;27;20145;-86
2022/12/13 10:34:37;;;;;;;53.00;20.90;;;-0.20;71.90;;;;;;4220385;28;20076;-87
2022/12/13 10:36:56;;;;;;;53.05;21.40;;;-0.20;71.90;;;;;;4223141;28;20359;-85
2022/12/13 10:39:26;;;;;;;52.17;21.70;;;-0.20;71.80;;;;;;4221976;28;20081;-86
2022/12/13 10:41:46;;;;;;;47.13;20.15;;;-0.20;71.80;;;;;;4218162;28;20069;-86
2022/12/13 10:44:18;;;;;;;51.85;20.73;;;-0.10;71.60;;;;;;4216735;28;20165;-86
2022/12/13 10:46:46;;;;;;;54.22;21.33;;;-0.10;71.60;;;;;;4219173;28;20070;-87
2022/12/13 10:49:18;;;;;;;51.47;20.45;;;-0.10;71.50;;;;;;4221228;28;20058;-87
2022/12/13 10:51:39;;;;;;;50.88;21.48;;;-0.10;72.30;;;;;;4215921;28;20090;-86
2022/12/13 10:53:59;;;;;;;50.67;21.15;;;-0.10;71.60;;;;;;4221083;27;20050;-86
2022/12/13 10:56:21;;;;;;;53.88;22.17;;;-0.10;71.40;;;;;;4220900;28;20410;-86
2022/12/13 10:58:43;;;;;;;56.58;22.40;;;-0.10;71.50;;;;;;4218578;28;20057;-84
2022/12/13 11:01:20;;;;;;;50.03;20.33;;;0.00;71.50;;;;;;4221368;28;20100;-87
2022/12/13 11:03:39;;;;;;;52.42;21.45;;;-0.10;71.10;;;;;;4221761;28;20111;-84
2022/12/13 11:06:12;;;;;;;46.53;20.95;;;-0.10;71.10;;;;;;4219660;28;20065;-85
2022/12/13 11:08:32;;;;;;;50.10;21.00;;;0.00;71.10;;;;;;4220564;27;20112;-84
2022/12/13 11:11:00;;;;;;;47.03;20.40;;;0.00;71.00;;;;;;4220583;27;20110;-84
2022/12/13 11:13:33;;;;;;;52.80;21.92;;;0.00;71.00;;;;;;4213115;28;20094;-85
2022/12/13 11:15:55;;;;;;;50.47;21.45;;;0.00;70.80;;;;;;4222949;27;20121;-85
2022/12/13 11:18:22;;;;;;;49.25;20.40;;;0.00;70.80;;;;;;4214918;28;20034;-85
2022/12/13 11:20:59;;;;;;;49.80;20.15;;;0.00;70.80;;;;;;4218697;27;20491;-84
2022/12/13 11:23:43;;;;;;;50.00;20.85;;;-0.10;71.00;;;;;;4221982;28;20022;-85
2022/12/13 11:26:10;;;;;;;47.75;21.08;;;0.00;71.10;;;;;;4220152;27;20798;-85
2022/12/13 11:28:52;;;;;;;47.47;19.25;;;0.00;71.10;;;;;;4219459;28;20181;-85
2022/12/13 11:31:28;;;;;;;49.33;20.35;;;0.10;71.10;;;;;;4218973;28;20061;-85
2022/12/13 11:34:10;;;;;;;50.92;20.10;;;0.10;71.10;;;;;;4220081;28;20187;-84
2022/12/13 11:36:40;;;;;;;46.80;18.92;;;0.10;70.90;;;;;;4218701;28;20420;-85
2022/12/13 11:39:30;;;;;;;56.13;20.52;;;0.10;71.00;;;;;;4218349;27;20085;-84